sensor_id;sensor_type;location;lat;lon;timestamp;P1;durP1;ratioP1;P2;durP2;ratioP2
11086;SDS011;5597;47.588;9.642;2023-08-12T00:00:29;4.10;;;3.80;;
11086;SDS011;5597;47.588;9.642;2023-08-12T00:02:54;3.80;;;3.50;;
11086;SDS011;5597;47.588;9.642;2023-08-12T00:05:20;3.90;;;3.60;;
11086;SDS011;5597;47.588;9.642;2023-08-12T00:07:46;4.53;;;3.70;;
11086;SDS011;5597;47.588;9.642;2023-08-12T00:10:12;3.77;;;3.47;;
11086;SDS011;5597;47.588;9.642;2023-08-12T00:12:38;3.80;;;3.43;;
11086;SDS011;5597;47.588;9.642;2023-08-12T00:15:05;3.80;;;3.50;;
11086;SDS011;5597;47.588;9.642;2023-08-12T00:17:33;3.80;;;3.50;;
11086;SDS011;5597;47.588;9.642;2023-08-12T00:19:59;3.60;;;3.30;;
11086;SDS011;5597;47.588;9.642;2023-08-12T00:22:25;3.53;;;3.23;;
11086;SDS011;5597;47.588;9.642;2023-08-12T00:24:51;3.60;;;3.30;;
11086;SDS011;5597;47.588;9.642;2023-08-12T00:27:17;3.13;;;2.90;;
11086;SDS011;5597;47.588;9.642;2023-08-12T00:29:43;3.53;;;2.90;;
11086;SDS011;5597;47.588;9.642;2023-08-12T00:32:09;3.40;;;3.10;;
11086;SDS011;5597;47.588;9.642;2023-08-12T00:34:35;3.63;;;3.10;;
11086;SDS011;5597;47.588;9.642;2023-08-12T00:37:01;4.37;;;3.57;;
11086;SDS011;5597;47.588;9.642;2023-08-12T00:39:27;3.90;;;3.43;;
11086;SDS011;5597;47.588;9.642;2023-08-12T00:41:53;3.50;;;3.03;;
11086;SDS011;5597;47.588;9.642;2023-08-12T00:44:18;3.27;;;2.97;;
11086;SDS011;5597;47.588;9.642;2023-08-12T00:46:44;3.57;;;3.27;;
11086;SDS011;5597;47.588;9.642;2023-08-12T00:49:10;3.50;;;3.20;;
11086;SDS011;5597;47.588;9.642;2023-08-12T00:51:38;3.37;;;3.07;;
11086;SDS011;5597;47.588;9.642;2023-08-12T00:54:06;3.83;;;3.53;;
11086;SDS011;5597;47.588;9.642;2023-08-12T00:56:33;3.27;;;2.97;;
11086;SDS011;5597;47.588;9.642;2023-08-12T00:59:00;3.80;;;3.50;;
11086;SDS011;5597;47.588;9.642;2023-08-12T01:01:29;3.60;;;3.00;;
11086;SDS011;5597;47.588;9.642;2023-08-12T01:03:56;3.70;;;2.90;;
11086;SDS011;5597;47.588;9.642;2023-08-12T01:06:22;3.30;;;3.00;;
11086;SDS011;5597;47.588;9.642;2023-08-12T01:08:49;3.57;;;3.27;;
11086;SDS011;5597;47.588;9.642;2023-08-12T01:11:24;3.30;;;3.00;;
11086;SDS011;5597;47.588;9.642;2023-08-12T01:16:29;3.70;;;3.40;;
11086;SDS011;5597;47.588;9.642;2023-08-12T01:18:59;3.80;;;3.40;;
11086;SDS011;5597;47.588;9.642;2023-08-12T01:21:26;3.20;;;2.90;;
11086;SDS011;5597;47.588;9.642;2023-08-12T01:23:54;3.50;;;3.20;;
11086;SDS011;5597;47.588;9.642;2023-08-12T01:26:20;3.40;;;3.10;;
11086;SDS011;5597;47.588;9.642;2023-08-12T01:28:46;3.40;;;3.10;;
11086;SDS011;5597;47.588;9.642;2023-08-12T01:31:15;3.53;;;3.23;;
11086;SDS011;5597;47.588;9.642;2023-08-12T01:33:58;3.20;;;2.90;;
11086;SDS011;5597;47.588;9.642;2023-08-12T01:36:29;3.47;;;3.17;;
11086;SDS011;5597;47.588;9.642;2023-08-12T01:38:59;3.83;;;3.43;;
11086;SDS011;5597;47.588;9.642;2023-08-12T01:41:25;3.87;;;3.47;;
11086;SDS011;5597;47.588;9.642;2023-08-12T01:43:51;3.30;;;3.10;;
11086;SDS011;5597;47.588;9.642;2023-08-12T01:46:17;3.73;;;3.33;;
11086;SDS011;5597;47.588;9.642;2023-08-12T01:48:46;3.60;;;3.30;;
11086;SDS011;5597;47.588;9.642;2023-08-12T01:51:12;3.17;;;2.87;;
11086;SDS011;5597;47.588;9.642;2023-08-12T01:53:38;2.97;;;2.77;;
11086;SDS011;5597;47.588;9.642;2023-08-12T01:56:04;3.70;;;3.40;;
11086;SDS011;5597;47.588;9.642;2023-08-12T01:58:29;3.37;;;3.00;;
11086;SDS011;5597;47.588;9.642;2023-08-12T02:00:55;3.67;;;3.37;;
11086;SDS011;5597;47.588;9.642;2023-08-12T02:03:21;3.70;;;3.40;;
11086;SDS011;5597;47.588;9.642;2023-08-12T02:05:46;4.30;;;3.60;;
11086;SDS011;5597;47.588;9.642;2023-08-12T02:08:13;3.70;;;3.40;;
11086;SDS011;5597;47.588;9.642;2023-08-12T02:10:38;3.67;;;3.37;;
11086;SDS011;5597;47.588;9.642;2023-08-12T02:13:04;3.63;;;3.33;;
11086;SDS011;5597;47.588;9.642;2023-08-12T02:15:30;3.40;;;3.07;;
11086;SDS011;5597;47.588;9.642;2023-08-12T02:17:56;3.87;;;3.57;;
11086;SDS011;5597;47.588;9.642;2023-08-12T02:20:21;3.77;;;3.40;;
11086;SDS011;5597;47.588;9.642;2023-08-12T02:22:47;3.50;;;3.20;;
11086;SDS011;5597;47.588;9.642;2023-08-12T02:25:13;4.50;;;3.50;;
11086;SDS011;5597;47.588;9.642;2023-08-12T02:27:38;3.50;;;3.20;;
11086;SDS011;5597;47.588;9.642;2023-08-12T02:30:04;4.77;;;3.57;;
11086;SDS011;5597;47.588;9.642;2023-08-12T02:32:30;3.70;;;3.40;;
11086;SDS011;5597;47.588;9.642;2023-08-12T02:34:56;3.87;;;3.23;;
11086;SDS011;5597;47.588;9.642;2023-08-12T02:37:22;3.43;;;3.20;;
11086;SDS011;5597;47.588;9.642;2023-08-12T02:39:47;3.60;;;3.30;;
11086;SDS011;5597;47.588;9.642;2023-08-12T02:42:13;3.53;;;3.23;;
11086;SDS011;5597;47.588;9.642;2023-08-12T02:44:39;3.50;;;3.20;;
11086;SDS011;5597;47.588;9.642;2023-08-12T02:47:04;3.63;;;3.00;;
11086;SDS011;5597;47.588;9.642;2023-08-12T02:49:30;4.87;;;3.50;;
11086;SDS011;5597;47.588;9.642;2023-08-12T02:51:56;3.40;;;3.10;;
11086;SDS011;5597;47.588;9.642;2023-08-12T02:54:21;3.20;;;2.97;;
11086;SDS011;5597;47.588;9.642;2023-08-12T02:56:47;3.37;;;2.80;;
11086;SDS011;5597;47.588;9.642;2023-08-12T02:59:14;3.50;;;3.20;;
11086;SDS011;5597;47.588;9.642;2023-08-12T03:01:41;3.67;;;3.37;;
11086;SDS011;5597;47.588;9.642;2023-08-12T03:04:07;3.07;;;2.80;;
11086;SDS011;5597;47.588;9.642;2023-08-12T03:06:32;3.87;;;3.00;;
11086;SDS011;5597;47.588;9.642;2023-08-12T03:08:58;3.30;;;3.00;;
11086;SDS011;5597;47.588;9.642;2023-08-12T03:11:24;3.47;;;3.20;;
11086;SDS011;5597;47.588;9.642;2023-08-12T03:13:50;3.57;;;3.27;;
11086;SDS011;5597;47.588;9.642;2023-08-12T03:16:15;3.90;;;3.30;;
11086;SDS011;5597;47.588;9.642;2023-08-12T03:18:41;3.60;;;3.30;;
11086;SDS011;5597;47.588;9.642;2023-08-12T03:21:07;3.47;;;3.17;;
11086;SDS011;5597;47.588;9.642;2023-08-12T03:23:36;3.53;;;3.23;;
11086;SDS011;5597;47.588;9.642;2023-08-12T03:26:03;4.60;;;3.50;;
11086;SDS011;5597;47.588;9.642;2023-08-12T03:28:29;3.63;;;3.33;;
11086;SDS011;5597;47.588;9.642;2023-08-12T03:30:56;3.57;;;3.20;;
11086;SDS011;5597;47.588;9.642;2023-08-12T03:33:24;3.90;;;3.50;;
11086;SDS011;5597;47.588;9.642;2023-08-12T03:35:50;3.53;;;3.23;;
11086;SDS011;5597;47.588;9.642;2023-08-12T03:38:16;3.50;;;3.20;;
11086;SDS011;5597;47.588;9.642;2023-08-12T03:40:42;3.40;;;3.10;;
11086;SDS011;5597;47.588;9.642;2023-08-12T03:43:07;3.33;;;3.07;;
11086;SDS011;5597;47.588;9.642;2023-08-12T03:45:39;3.77;;;3.47;;
11086;SDS011;5597;47.588;9.642;2023-08-12T03:48:08;3.90;;;3.60;;
11086;SDS011;5597;47.588;9.642;2023-08-12T03:50:34;3.60;;;3.30;;
11086;SDS011;5597;47.588;9.642;2023-08-12T03:53:00;5.07;;;3.90;;
11086;SDS011;5597;47.588;9.642;2023-08-12T03:55:26;4.00;;;3.60;;
11086;SDS011;5597;47.588;9.642;2023-08-12T03:57:54;4.10;;;3.70;;
11086;SDS011;5597;47.588;9.642;2023-08-12T04:00:20;4.70;;;4.20;;
11086;SDS011;5597;47.588;9.642;2023-08-12T04:02:46;4.10;;;3.80;;
11086;SDS011;5597;47.588;9.642;2023-08-12T04:05:11;3.60;;;3.30;;
11086;SDS011;5597;47.588;9.642;2023-08-12T04:07:37;3.73;;;3.40;;
11086;SDS011;5597;47.588;9.642;2023-08-12T04:10:03;4.00;;;3.60;;
11086;SDS011;5597;47.588;9.642;2023-08-12T04:12:29;3.50;;;3.20;;
11086;SDS011;5597;47.588;9.642;2023-08-12T04:14:55;3.73;;;3.43;;
11086;SDS011;5597;47.588;9.642;2023-08-12T04:17:20;4.73;;;3.53;;
11086;SDS011;5597;47.588;9.642;2023-08-12T04:19:46;3.70;;;3.40;;
11086;SDS011;5597;47.588;9.642;2023-08-12T04:22:12;3.50;;;3.20;;
11086;SDS011;5597;47.588;9.642;2023-08-12T04:24:37;3.53;;;3.20;;
11086;SDS011;5597;47.588;9.642;2023-08-12T04:27:03;3.60;;;3.30;;
11086;SDS011;5597;47.588;9.642;2023-08-12T04:29:29;3.33;;;3.13;;
11086;SDS011;5597;47.588;9.642;2023-08-12T04:31:54;3.83;;;3.43;;
11086;SDS011;5597;47.588;9.642;2023-08-12T04:34:20;3.83;;;3.53;;
11086;SDS011;5597;47.588;9.642;2023-08-12T04:36:46;4.13;;;3.60;;
11086;SDS011;5597;47.588;9.642;2023-08-12T04:39:11;4.10;;;3.30;;
11086;SDS011;5597;47.588;9.642;2023-08-12T04:41:37;4.07;;;3.67;;
11086;SDS011;5597;47.588;9.642;2023-08-12T04:44:04;4.07;;;3.70;;
11086;SDS011;5597;47.588;9.642;2023-08-12T04:46:30;3.63;;;3.33;;
11086;SDS011;5597;47.588;9.642;2023-08-12T04:48:56;4.87;;;3.20;;
11086;SDS011;5597;47.588;9.642;2023-08-12T04:51:21;4.30;;;3.57;;
11086;SDS011;5597;47.588;9.642;2023-08-12T04:53:47;4.03;;;3.73;;
11086;SDS011;5597;47.588;9.642;2023-08-12T04:56:13;3.50;;;3.20;;
11086;SDS011;5597;47.588;9.642;2023-08-12T04:58:38;4.27;;;3.30;;
11086;SDS011;5597;47.588;9.642;2023-08-12T05:01:04;3.77;;;3.40;;
11086;SDS011;5597;47.588;9.642;2023-08-12T05:03:30;3.67;;;3.30;;
11086;SDS011;5597;47.588;9.642;2023-08-12T05:05:56;3.30;;;3.00;;
11086;SDS011;5597;47.588;9.642;2023-08-12T05:08:21;3.47;;;3.17;;
11086;SDS011;5597;47.588;9.642;2023-08-12T05:10:47;4.00;;;3.67;;
11086;SDS011;5597;47.588;9.642;2023-08-12T05:13:14;3.40;;;3.10;;
11086;SDS011;5597;47.588;9.642;2023-08-12T05:15:39;3.90;;;3.60;;
11086;SDS011;5597;47.588;9.642;2023-08-12T05:18:05;4.53;;;4.13;;
11086;SDS011;5597;47.588;9.642;2023-08-12T05:20:31;4.00;;;3.70;;
11086;SDS011;5597;47.588;9.642;2023-08-12T05:22:57;3.87;;;3.57;;
11086;SDS011;5597;47.588;9.642;2023-08-12T05:25:23;4.27;;;3.97;;
11086;SDS011;5597;47.588;9.642;2023-08-12T05:27:49;5.27;;;4.57;;
11086;SDS011;5597;47.588;9.642;2023-08-12T05:30:18;5.17;;;4.17;;
11086;SDS011;5597;47.588;9.642;2023-08-12T05:32:43;5.43;;;4.27;;
11086;SDS011;5597;47.588;9.642;2023-08-12T05:35:09;4.40;;;4.00;;
11086;SDS011;5597;47.588;9.642;2023-08-12T05:37:35;4.53;;;4.13;;
11086;SDS011;5597;47.588;9.642;2023-08-12T05:40:01;4.63;;;4.23;;
11086;SDS011;5597;47.588;9.642;2023-08-12T05:42:29;4.40;;;4.00;;
11086;SDS011;5597;47.588;9.642;2023-08-12T05:44:54;4.50;;;4.10;;
11086;SDS011;5597;47.588;9.642;2023-08-12T05:47:20;4.53;;;4.13;;
11086;SDS011;5597;47.588;9.642;2023-08-12T05:49:46;4.47;;;4.07;;
11086;SDS011;5597;47.588;9.642;2023-08-12T05:52:11;5.37;;;4.40;;
11086;SDS011;5597;47.588;9.642;2023-08-12T05:54:37;4.33;;;4.00;;
11086;SDS011;5597;47.588;9.642;2023-08-12T05:57:02;4.73;;;4.17;;
11086;SDS011;5597;47.588;9.642;2023-08-12T05:59:28;5.17;;;4.67;;
11086;SDS011;5597;47.588;9.642;2023-08-12T06:01:54;4.60;;;4.20;;
11086;SDS011;5597;47.588;9.642;2023-08-12T06:04:20;6.53;;;4.37;;
11086;SDS011;5597;47.588;9.642;2023-08-12T06:06:45;4.40;;;4.00;;
11086;SDS011;5597;47.588;9.642;2023-08-12T06:09:11;4.20;;;3.90;;
11086;SDS011;5597;47.588;9.642;2023-08-12T06:11:37;4.50;;;4.10;;
11086;SDS011;5597;47.588;9.642;2023-08-12T06:14:02;4.37;;;3.73;;
11086;SDS011;5597;47.588;9.642;2023-08-12T06:16:28;4.10;;;3.80;;
11086;SDS011;5597;47.588;9.642;2023-08-12T06:18:54;3.87;;;3.57;;
11086;SDS011;5597;47.588;9.642;2023-08-12T06:21:20;3.93;;;3.63;;
11086;SDS011;5597;47.588;9.642;2023-08-12T06:23:45;3.90;;;3.57;;
11086;SDS011;5597;47.588;9.642;2023-08-12T06:26:11;3.70;;;3.40;;
11086;SDS011;5597;47.588;9.642;2023-08-12T06:28:37;3.60;;;3.30;;
11086;SDS011;5597;47.588;9.642;2023-08-12T06:31:02;3.90;;;3.60;;
11086;SDS011;5597;47.588;9.642;2023-08-12T06:33:28;3.80;;;3.50;;
11086;SDS011;5597;47.588;9.642;2023-08-12T06:35:54;3.53;;;3.23;;
11086;SDS011;5597;47.588;9.642;2023-08-12T06:38:20;3.43;;;3.13;;
11086;SDS011;5597;47.588;9.642;2023-08-12T06:40:46;3.47;;;3.17;;
11086;SDS011;5597;47.588;9.642;2023-08-12T06:43:12;4.03;;;3.50;;
11086;SDS011;5597;47.588;9.642;2023-08-12T06:45:37;3.50;;;3.20;;
11086;SDS011;5597;47.588;9.642;2023-08-12T06:48:04;3.73;;;3.30;;
11086;SDS011;5597;47.588;9.642;2023-08-12T06:50:30;3.47;;;3.17;;
11086;SDS011;5597;47.588;9.642;2023-08-12T06:52:57;3.47;;;3.17;;
11086;SDS011;5597;47.588;9.642;2023-08-12T06:55:22;3.13;;;2.83;;
11086;SDS011;5597;47.588;9.642;2023-08-12T06:57:48;3.30;;;3.00;;
11086;SDS011;5597;47.588;9.642;2023-08-12T07:00:13;3.00;;;2.80;;
11086;SDS011;5597;47.588;9.642;2023-08-12T07:02:39;3.00;;;2.80;;
11086;SDS011;5597;47.588;9.642;2023-08-12T07:05:07;3.20;;;2.90;;
11086;SDS011;5597;47.588;9.642;2023-08-12T07:07:36;4.63;;;2.90;;
11086;SDS011;5597;47.588;9.642;2023-08-12T07:10:01;3.80;;;3.10;;
11086;SDS011;5597;47.588;9.642;2023-08-12T07:12:28;3.83;;;3.47;;
11086;SDS011;5597;47.588;9.642;2023-08-12T07:14:54;3.63;;;3.30;;
11086;SDS011;5597;47.588;9.642;2023-08-12T07:17:19;2.90;;;2.70;;
11086;SDS011;5597;47.588;9.642;2023-08-12T07:19:45;3.40;;;3.07;;
11086;SDS011;5597;47.588;9.642;2023-08-12T07:22:12;3.07;;;2.87;;
11086;SDS011;5597;47.588;9.642;2023-08-12T07:24:37;2.87;;;2.67;;
11086;SDS011;5597;47.588;9.642;2023-08-12T07:27:03;3.50;;;3.20;;
11086;SDS011;5597;47.588;9.642;2023-08-12T07:29:29;4.07;;;3.20;;
11086;SDS011;5597;47.588;9.642;2023-08-12T07:31:55;3.53;;;2.90;;
11086;SDS011;5597;47.588;9.642;2023-08-12T07:34:21;3.03;;;2.83;;
11086;SDS011;5597;47.588;9.642;2023-08-12T07:36:47;3.30;;;3.00;;
11086;SDS011;5597;47.588;9.642;2023-08-12T07:39:12;3.13;;;2.93;;
11086;SDS011;5597;47.588;9.642;2023-08-12T07:41:38;3.13;;;2.83;;
11086;SDS011;5597;47.588;9.642;2023-08-12T07:44:04;3.20;;;2.90;;
11086;SDS011;5597;47.588;9.642;2023-08-12T07:46:30;3.27;;;2.53;;
11086;SDS011;5597;47.588;9.642;2023-08-12T07:48:56;3.27;;;2.97;;
11086;SDS011;5597;47.588;9.642;2023-08-12T07:51:25;3.20;;;2.90;;
11086;SDS011;5597;47.588;9.642;2023-08-12T07:53:50;3.97;;;3.00;;
11086;SDS011;5597;47.588;9.642;2023-08-12T07:56:16;3.10;;;2.80;;
11086;SDS011;5597;47.588;9.642;2023-08-12T07:58:42;3.23;;;2.90;;
11086;SDS011;5597;47.588;9.642;2023-08-12T08:01:07;3.53;;;3.23;;
11086;SDS011;5597;47.588;9.642;2023-08-12T08:03:34;3.80;;;3.50;;
11086;SDS011;5597;47.588;9.642;2023-08-12T08:06:00;3.40;;;3.10;;
11086;SDS011;5597;47.588;9.642;2023-08-12T08:08:25;4.00;;;3.63;;
11086;SDS011;5597;47.588;9.642;2023-08-12T08:10:51;3.87;;;3.57;;
11086;SDS011;5597;47.588;9.642;2023-08-12T08:13:17;3.87;;;3.50;;
11086;SDS011;5597;47.588;9.642;2023-08-12T08:15:42;3.47;;;3.17;;
11086;SDS011;5597;47.588;9.642;2023-08-12T08:18:08;3.50;;;3.20;;
11086;SDS011;5597;47.588;9.642;2023-08-12T08:20:34;3.50;;;3.20;;
11086;SDS011;5597;47.588;9.642;2023-08-12T08:23:00;3.70;;;3.40;;
11086;SDS011;5597;47.588;9.642;2023-08-12T08:25:26;3.40;;;3.10;;
11086;SDS011;5597;47.588;9.642;2023-08-12T08:27:51;3.70;;;3.40;;
11086;SDS011;5597;47.588;9.642;2023-08-12T08:30:18;3.53;;;3.23;;
11086;SDS011;5597;47.588;9.642;2023-08-12T08:32:43;3.60;;;3.30;;
11086;SDS011;5597;47.588;9.642;2023-08-12T08:35:11;3.50;;;3.20;;
11086;SDS011;5597;47.588;9.642;2023-08-12T08:37:37;3.77;;;3.47;;
11086;SDS011;5597;47.588;9.642;2023-08-12T08:40:03;4.27;;;3.50;;
11086;SDS011;5597;47.588;9.642;2023-08-12T08:42:30;3.33;;;3.03;;
11086;SDS011;5597;47.588;9.642;2023-08-12T08:44:57;3.70;;;3.40;;
11086;SDS011;5597;47.588;9.642;2023-08-12T08:47:27;3.27;;;3.07;;
11086;SDS011;5597;47.588;9.642;2023-08-12T08:49:54;3.60;;;3.30;;
11086;SDS011;5597;47.588;9.642;2023-08-12T08:52:23;3.57;;;3.27;;
11086;SDS011;5597;47.588;9.642;2023-08-12T08:54:50;4.60;;;3.87;;
11086;SDS011;5597;47.588;9.642;2023-08-12T08:57:16;4.93;;;3.97;;
11086;SDS011;5597;47.588;9.642;2023-08-12T08:59:43;4.23;;;3.90;;
11086;SDS011;5597;47.588;9.642;2023-08-12T09:02:16;4.73;;;4.33;;
11086;SDS011;5597;47.588;9.642;2023-08-12T09:04:43;4.57;;;3.83;;
11086;SDS011;5597;47.588;9.642;2023-08-12T09:07:10;3.80;;;3.50;;
11086;SDS011;5597;47.588;9.642;2023-08-12T09:09:38;5.53;;;4.03;;
11086;SDS011;5597;47.588;9.642;2023-08-12T09:12:06;4.00;;;3.70;;
11086;SDS011;5597;47.588;9.642;2023-08-12T09:14:32;4.30;;;4.00;;
11086;SDS011;5597;47.588;9.642;2023-08-12T09:16:59;4.37;;;4.00;;
11086;SDS011;5597;47.588;9.642;2023-08-12T09:19:25;4.37;;;3.77;;
11086;SDS011;5597;47.588;9.642;2023-08-12T09:21:54;4.23;;;3.90;;
11086;SDS011;5597;47.588;9.642;2023-08-12T09:24:26;4.00;;;3.70;;
11086;SDS011;5597;47.588;9.642;2023-08-12T09:26:55;3.97;;;3.67;;
11086;SDS011;5597;47.588;9.642;2023-08-12T09:29:34;3.80;;;3.50;;
11086;SDS011;5597;47.588;9.642;2023-08-12T09:32:13;3.43;;;3.13;;
11086;SDS011;5597;47.588;9.642;2023-08-12T09:34:49;3.53;;;3.30;;
11086;SDS011;5597;47.588;9.642;2023-08-12T09:37:16;4.10;;;3.70;;
11086;SDS011;5597;47.588;9.642;2023-08-12T09:39:43;5.23;;;3.50;;
11086;SDS011;5597;47.588;9.642;2023-08-12T09:42:13;3.83;;;3.50;;
11086;SDS011;5597;47.588;9.642;2023-08-12T09:44:39;4.10;;;3.80;;
11086;SDS011;5597;47.588;9.642;2023-08-12T09:47:05;3.50;;;3.23;;
11086;SDS011;5597;47.588;9.642;2023-08-12T09:49:36;3.83;;;3.53;;
11086;SDS011;5597;47.588;9.642;2023-08-12T09:52:03;3.27;;;3.07;;
11086;SDS011;5597;47.588;9.642;2023-08-12T09:54:33;3.97;;;3.63;;
11086;SDS011;5597;47.588;9.642;2023-08-12T09:57:00;3.63;;;3.33;;
11086;SDS011;5597;47.588;9.642;2023-08-12T09:59:29;3.97;;;3.50;;
11086;SDS011;5597;47.588;9.642;2023-08-12T10:01:57;4.10;;;3.67;;
11086;SDS011;5597;47.588;9.642;2023-08-12T10:04:23;3.30;;;3.10;;
11086;SDS011;5597;47.588;9.642;2023-08-12T10:06:52;3.67;;;3.37;;
11086;SDS011;5597;47.588;9.642;2023-08-12T10:09:18;3.70;;;3.40;;
11086;SDS011;5597;47.588;9.642;2023-08-12T10:11:45;3.80;;;3.50;;
11086;SDS011;5597;47.588;9.642;2023-08-12T10:14:12;4.43;;;4.03;;
11086;SDS011;5597;47.588;9.642;2023-08-12T10:16:38;4.20;;;3.80;;
11086;SDS011;5597;47.588;9.642;2023-08-12T10:19:04;4.70;;;4.20;;
11086;SDS011;5597;47.588;9.642;2023-08-12T10:21:31;3.87;;;3.57;;
11086;SDS011;5597;47.588;9.642;2023-08-12T10:24:00;4.17;;;3.70;;
11086;SDS011;5597;47.588;9.642;2023-08-12T10:26:28;4.50;;;4.10;;
11086;SDS011;5597;47.588;9.642;2023-08-12T10:28:55;3.70;;;3.40;;
11086;SDS011;5597;47.588;9.642;2023-08-12T10:31:21;4.43;;;3.83;;
11086;SDS011;5597;47.588;9.642;2023-08-12T10:33:47;4.37;;;3.97;;
11086;SDS011;5597;47.588;9.642;2023-08-12T10:36:15;4.83;;;4.03;;
11086;SDS011;5597;47.588;9.642;2023-08-12T10:38:44;3.67;;;3.37;;
11086;SDS011;5597;47.588;9.642;2023-08-12T10:41:22;4.00;;;3.60;;
11086;SDS011;5597;47.588;9.642;2023-08-12T10:46:23;4.53;;;3.80;;
11086;SDS011;5597;47.588;9.642;2023-08-12T10:49:03;4.50;;;4.20;;
11086;SDS011;5597;47.588;9.642;2023-08-12T11:02:54;3.83;;;3.53;;
11086;SDS011;5597;47.588;9.642;2023-08-12T11:05:03;5.33;;;3.63;;
11086;SDS011;5597;47.588;9.642;2023-08-12T11:10:24;3.20;;;3.00;;
11086;SDS011;5597;47.588;9.642;2023-08-12T11:15:17;3.63;;;3.20;;
11086;SDS011;5597;47.588;9.642;2023-08-12T11:18:06;4.13;;;3.50;;
11086;SDS011;5597;47.588;9.642;2023-08-12T11:20:33;3.13;;;2.93;;
11086;SDS011;5597;47.588;9.642;2023-08-12T11:23:00;3.63;;;3.33;;
11086;SDS011;5597;47.588;9.642;2023-08-12T11:25:30;6.00;;;3.50;;
11086;SDS011;5597;47.588;9.642;2023-08-12T11:27:59;3.60;;;3.33;;
11086;SDS011;5597;47.588;9.642;2023-08-12T11:30:24;3.63;;;3.40;;
11086;SDS011;5597;47.588;9.642;2023-08-12T11:32:51;3.47;;;3.17;;
11086;SDS011;5597;47.588;9.642;2023-08-12T11:35:19;3.50;;;3.20;;
11086;SDS011;5597;47.588;9.642;2023-08-12T11:37:50;3.70;;;3.40;;
11086;SDS011;5597;47.588;9.642;2023-08-12T11:40:21;3.47;;;3.17;;
11086;SDS011;5597;47.588;9.642;2023-08-12T11:42:48;3.80;;;3.53;;
11086;SDS011;5597;47.588;9.642;2023-08-12T11:45:16;4.30;;;3.87;;
11086;SDS011;5597;47.588;9.642;2023-08-12T11:47:47;4.00;;;3.70;;
11086;SDS011;5597;47.588;9.642;2023-08-12T11:50:17;4.50;;;3.90;;
11086;SDS011;5597;47.588;9.642;2023-08-12T11:52:48;4.00;;;3.70;;
11086;SDS011;5597;47.588;9.642;2023-08-12T11:55:17;3.87;;;3.40;;
11086;SDS011;5597;47.588;9.642;2023-08-12T11:57:43;4.23;;;3.93;;
11086;SDS011;5597;47.588;9.642;2023-08-12T12:00:10;3.77;;;3.47;;
11086;SDS011;5597;47.588;9.642;2023-08-12T12:05:12;3.90;;;3.60;;
11086;SDS011;5597;47.588;9.642;2023-08-12T12:07:38;3.80;;;3.50;;
11086;SDS011;5597;47.588;9.642;2023-08-12T12:10:04;4.00;;;3.70;;
11086;SDS011;5597;47.588;9.642;2023-08-12T12:12:34;3.87;;;3.53;;
11086;SDS011;5597;47.588;9.642;2023-08-12T12:15:01;4.00;;;3.70;;
11086;SDS011;5597;47.588;9.642;2023-08-12T12:17:27;3.60;;;3.30;;
11086;SDS011;5597;47.588;9.642;2023-08-12T12:19:56;4.10;;;3.70;;
11086;SDS011;5597;47.588;9.642;2023-08-12T12:22:28;4.13;;;3.77;;
11086;SDS011;5597;47.588;9.642;2023-08-12T12:24:57;4.50;;;4.10;;
11086;SDS011;5597;47.588;9.642;2023-08-12T12:27:24;3.93;;;3.63;;
11086;SDS011;5597;47.588;9.642;2023-08-12T12:29:49;3.60;;;3.30;;
11086;SDS011;5597;47.588;9.642;2023-08-12T12:32:18;3.50;;;3.20;;
11086;SDS011;5597;47.588;9.642;2023-08-12T12:34:44;3.20;;;2.83;;
11086;SDS011;5597;47.588;9.642;2023-08-12T12:37:11;3.10;;;2.80;;
11086;SDS011;5597;47.588;9.642;2023-08-12T12:39:41;3.50;;;3.20;;
11086;SDS011;5597;47.588;9.642;2023-08-12T12:42:07;2.73;;;2.53;;
11086;SDS011;5597;47.588;9.642;2023-08-12T12:44:33;3.07;;;2.77;;
11086;SDS011;5597;47.588;9.642;2023-08-12T12:46:58;2.90;;;2.60;;
11086;SDS011;5597;47.588;9.642;2023-08-12T12:49:24;3.10;;;2.80;;
11086;SDS011;5597;47.588;9.642;2023-08-12T12:51:50;3.23;;;2.87;;
11086;SDS011;5597;47.588;9.642;2023-08-12T12:54:16;3.60;;;2.90;;
11086;SDS011;5597;47.588;9.642;2023-08-12T12:56:42;3.20;;;2.80;;
11086;SDS011;5597;47.588;9.642;2023-08-12T12:59:08;3.23;;;2.80;;
11086;SDS011;5597;47.588;9.642;2023-08-12T13:01:33;3.03;;;2.40;;
11086;SDS011;5597;47.588;9.642;2023-08-12T13:03:59;3.47;;;2.90;;
11086;SDS011;5597;47.588;9.642;2023-08-12T13:06:25;3.93;;;2.80;;
11086;SDS011;5597;47.588;9.642;2023-08-12T13:08:50;4.10;;;3.00;;
11086;SDS011;5597;47.588;9.642;2023-08-12T13:11:16;3.03;;;2.73;;
11086;SDS011;5597;47.588;9.642;2023-08-12T13:13:42;2.80;;;2.60;;
11086;SDS011;5597;47.588;9.642;2023-08-12T13:16:08;3.47;;;2.80;;
11086;SDS011;5597;47.588;9.642;2023-08-12T13:18:34;3.03;;;2.73;;
11086;SDS011;5597;47.588;9.642;2023-08-12T13:20:59;3.23;;;2.80;;
11086;SDS011;5597;47.588;9.642;2023-08-12T13:23:25;4.00;;;2.60;;
11086;SDS011;5597;47.588;9.642;2023-08-12T13:25:51;2.80;;;2.60;;
11086;SDS011;5597;47.588;9.642;2023-08-12T13:28:17;3.00;;;2.80;;
11086;SDS011;5597;47.588;9.642;2023-08-12T13:30:43;3.17;;;2.80;;
11086;SDS011;5597;47.588;9.642;2023-08-12T13:33:12;3.03;;;2.60;;
11086;SDS011;5597;47.588;9.642;2023-08-12T13:35:37;2.70;;;2.50;;
11086;SDS011;5597;47.588;9.642;2023-08-12T13:38:03;3.63;;;2.70;;
11086;SDS011;5597;47.588;9.642;2023-08-12T13:40:29;2.50;;;2.30;;
11086;SDS011;5597;47.588;9.642;2023-08-12T13:42:55;3.73;;;2.70;;
11086;SDS011;5597;47.588;9.642;2023-08-12T13:45:20;2.90;;;2.60;;
11086;SDS011;5597;47.588;9.642;2023-08-12T13:47:46;3.13;;;2.83;;
11086;SDS011;5597;47.588;9.642;2023-08-12T13:50:12;3.17;;;2.60;;
11086;SDS011;5597;47.588;9.642;2023-08-12T13:52:38;3.00;;;2.80;;
11086;SDS011;5597;47.588;9.642;2023-08-12T13:55:04;3.17;;;2.87;;
11086;SDS011;5597;47.588;9.642;2023-08-12T13:57:31;3.20;;;2.90;;
11086;SDS011;5597;47.588;9.642;2023-08-12T13:59:57;3.27;;;2.97;;
11086;SDS011;5597;47.588;9.642;2023-08-12T14:02:24;3.07;;;2.80;;
11086;SDS011;5597;47.588;9.642;2023-08-12T14:04:51;4.50;;;2.60;;
11086;SDS011;5597;47.588;9.642;2023-08-12T14:07:17;2.60;;;2.40;;
11086;SDS011;5597;47.588;9.642;2023-08-12T14:09:45;4.10;;;2.80;;
11086;SDS011;5597;47.588;9.642;2023-08-12T14:12:11;3.30;;;2.87;;
11086;SDS011;5597;47.588;9.642;2023-08-12T14:14:37;6.47;;;2.93;;
11086;SDS011;5597;47.588;9.642;2023-08-12T14:17:02;3.20;;;2.73;;
11086;SDS011;5597;47.588;9.642;2023-08-12T14:19:28;2.80;;;2.60;;
11086;SDS011;5597;47.588;9.642;2023-08-12T14:21:54;2.83;;;2.50;;
11086;SDS011;5597;47.588;9.642;2023-08-12T14:24:19;2.60;;;2.40;;
11086;SDS011;5597;47.588;9.642;2023-08-12T14:26:45;3.10;;;2.80;;
11086;SDS011;5597;47.588;9.642;2023-08-12T14:29:11;2.63;;;2.43;;
11086;SDS011;5597;47.588;9.642;2023-08-12T14:31:36;2.63;;;2.40;;
11086;SDS011;5597;47.588;9.642;2023-08-12T14:34:02;3.10;;;2.80;;
11086;SDS011;5597;47.588;9.642;2023-08-12T14:36:29;3.07;;;2.77;;
11086;SDS011;5597;47.588;9.642;2023-08-12T14:38:54;2.77;;;2.57;;
11086;SDS011;5597;47.588;9.642;2023-08-12T14:41:20;3.30;;;2.70;;
11086;SDS011;5597;47.588;9.642;2023-08-12T14:43:46;2.97;;;2.67;;
11086;SDS011;5597;47.588;9.642;2023-08-12T14:46:11;3.40;;;2.77;;
11086;SDS011;5597;47.588;9.642;2023-08-12T14:48:37;2.90;;;2.60;;
11086;SDS011;5597;47.588;9.642;2023-08-12T14:51:03;2.83;;;2.53;;
11086;SDS011;5597;47.588;9.642;2023-08-12T14:53:29;3.47;;;2.60;;
11086;SDS011;5597;47.588;9.642;2023-08-12T14:55:54;3.23;;;2.90;;
11086;SDS011;5597;47.588;9.642;2023-08-12T14:58:20;2.70;;;2.50;;
11086;SDS011;5597;47.588;9.642;2023-08-12T15:00:46;3.20;;;2.90;;
11086;SDS011;5597;47.588;9.642;2023-08-12T15:03:12;3.33;;;2.97;;
11086;SDS011;5597;47.588;9.642;2023-08-12T15:05:39;2.70;;;2.50;;
11086;SDS011;5597;47.588;9.642;2023-08-12T15:08:05;2.57;;;2.37;;
11086;SDS011;5597;47.588;9.642;2023-08-12T15:10:31;3.37;;;2.60;;
11086;SDS011;5597;47.588;9.642;2023-08-12T15:12:57;2.57;;;2.37;;
11086;SDS011;5597;47.588;9.642;2023-08-12T15:15:22;2.40;;;2.20;;
11086;SDS011;5597;47.588;9.642;2023-08-12T15:17:48;2.43;;;2.23;;
11086;SDS011;5597;47.588;9.642;2023-08-12T15:20:13;3.03;;;2.30;;